チューリヒ国際空港の過去48時間の天気

チューリヒ国際空港 (Zurich-Kloten)

現在時刻: 2/5 21:26 CET (2/5 20:26 UTC) 以下の時間は現地時間です。

過去48時間のMETAR気象情報
時間 風向 風速(m/s) 視程 気温(℃) 湿度(%) 気圧(hPa) 天気現象
5 20:50 南東 2 6000m 1 93 1034 弱い雪
5 20:20 南南東 2 6000m 1 93 1034 弱い雨 弱い雪
5 19:50 南東 3 8000m 2 93 1033 弱い雨
5 19:20 南南東 2 8000m 2 100 1033 弱い雨
5 18:50 南南東 2 8000m 3 87 1033 弱い雨
5 18:20 南南西 2 6000m 3 93 1033
5 17:50 西南西 2 6000m 3 93 1033
5 17:20 西南西 1 6000m 3 93 1033
5 16:50 西南西 2 7000m 3 93 1033
5 16:20 不定 2 8000m 3 93 1033 弱い雨
5 15:50 西南西 3 8000m 3 93 1033 弱い雨
5 15:20 不定 2 8000m 4 87 1033 弱い雨
5 14:50 不定 1 8000m 3 93 1033 弱い雨
5 14:20 西北西 3 8000m 3 87 1034 弱い雨
5 13:50 西北西 3 8000m 4 81 1034 弱い雨
5 13:20 西南西 3 10km以上 4 75 1035 弱い霧雨 弱い雨
5 12:50 西北西 2 10km以上 4 81 1035 弱い雨 弱い霧雨
5 12:20 北西 3 10km以上 3 87 1035
5 11:50 西 3 8000m 3 87 1036 もや
5 11:20 南東 2 5000m 2 93 1036 もや
5 10:50 南南東 2 5000m 2 93 1036 もや
5 10:20 南東 2 3500m 2 93 1037 もや
5 09:50 南東 2 4000m 1 93 1037 もや
5 09:20 南南東 2 3800m -1 93 1037 散在した霧
5 08:50 東南東 1 3800m -2 93 1037 散在した霧
5 08:20 1 4500m -3 93 1037 散在した霧
5 07:50 不定 1 4000m -2 100 1036 散在した霧
5 07:20 不定 1 4000m -2 93 1036 散在した霧
5 06:50 不定 1 6000m -2 93 1036 地霧
5 06:20 不定 1 6000m -2 93 1036 地霧
5 05:50 不定 1 7000m -2 100 1036 地霧
5 05:20 不定 1 10km以上 -1 93 1036
5 04:50 2 10km以上 -1 93 1036
5 04:20 西北西 2 10km以上 0 86 1036
5 03:50 西北西 1 10km以上 0 86 1036
5 03:20 北北東 2 10km以上 2 87 1036
5 02:50 北北西 2 10km以上 1 93 1037
5 02:20 不定 1 10km以上 2 87 1037
5 01:50 北北東 1 10km以上 1 93 1037
5 01:20 北北東 1 10km以上 1 93 1037
5 00:50 北西 2 10km以上 2 87 1037
5 00:20 不定 1 10km以上 1 93 1037
4 23:50 不定 2 10km以上 1 86 1037
4 23:20 北北西 2 10km以上 2 87 1037
4 22:50 北西 3 10km以上 0 93 1037
4 22:20 不定 1 10km以上 1 86 1036
4 21:50 北北東 2 10km以上 1 86 1036
4 21:20 不定 1 10km以上 1 86 1036
4 20:50 不定 1 10km以上 1 86 1036
4 20:20 北西 2 10km以上 3 81 1036
4 19:50 北西 2 10km以上 4 81 1036
4 19:20 不定 1 10km以上 4 75 1036
4 18:50 西 1 10km以上 3 87 1036
4 18:20 不定 2 10km以上 6 70 1036
4 17:50 東北東 3 10km以上 6 70 1035
4 17:20 不定 1 10km以上 7 70 1035
4 16:50 静穏 0 10km以上 7 70 1035
4 16:20 不定 1 10km以上 7 66 1035
4 15:50 東南東 2 10km以上 7 70 1035
4 15:20 南南東 1 10km以上 7 76 1035
4 14:50 不定 1 10km以上 7 76 1035
4 14:20 西北西 2 10km以上 7 76 1034
4 13:50 北西 2 10km以上 6 81 1034
4 13:20 2 10km以上 6 81 1034 周辺でしゅう雨
4 12:50 東北東 3 10km以上 6 81 1034 弱い霧雨
4 12:20 北東 4 9000m 6 81 1034 弱い雨 弱い霧雨
4 11:50 西北西 2 10km以上 7 81 1034 弱い雨
4 11:20 不定 1 10km以上 6 81 1034
4 10:50 不定 1 10km以上 6 81 1034
4 10:20 南南東 2 10km以上 6 81 1034
4 09:50 南南東 2 10km以上 6 81 1034
4 09:20 南南東 2 10km以上 5 81 1034
4 08:50 不定 1 10km以上 5 81 1034
4 08:20 静穏 0 10km以上 5 81 1033
4 07:50 不定 1 6000m 5 81 1033 弱い霧雨
4 07:20 不定 1 10km以上 5 81 1033 弱い雨
4 06:50 不定 1 10km以上 5 81 1033
4 06:20 不定 1 10km以上 5 81 1033
4 05:50 不定 1 10km以上 5 81 1033 弱い雨
4 05:20 不定 1 10km以上 5 81 1033 弱い雨
4 04:50 不定 2 10km以上 5 81 1033
4 04:20 南南西 2 10km以上 5 81 1033
4 03:50 3 10km以上 5 81 1033
4 03:20 南南西 2 10km以上 5 81 1033
4 02:50 南南西 4 10km以上 5 81 1033 弱い雨 弱い霧雨
4 02:20 3 10km以上 5 81 1033 弱い霧雨
4 01:50 南南西 4 10km以上 5 75 1033 弱い雨
4 01:20 南南西 3 10km以上 6 70 1033 弱い雨
4 00:50 南南西 2 10km以上 6 70 1033 弱い雨
4 00:20 南南西 3 10km以上 6 70 1033 弱い雨
3 23:50 南南西 3 10km以上 6 65 1033
3 23:20 3 10km以上 6 70 1033
3 22:50 西 4 10km以上 7 66 1033
3 22:20 西南西 4 10km以上 7 66 1033
3 21:50 西南西 5 10km以上 7 61 1033
LSZH 051950Z 14004KT 6000 -SN FEW005 SCT010 BKN020 01/00 Q1034 TEMPO 4500 BKN009
LSZH 051920Z 15004KT 6000 -RASN FEW003 SCT016 BKN021 01/00 Q1034 TEMPO 4500 BKN009
LSZH 051850Z 14005KT 8000 -RA FEW003 SCT008 BKN015 02/01 Q1033 TEMPO 4500 BKN009
LSZH 051820Z 15003KT 8000 -RA FEW003 SCT008 BKN015 02/02 Q1033 TEMPO 4500 BKN009
LSZH 051750Z 16003KT 8000 -RA FEW006 SCT009 BKN012 03/01 Q1033 TEMPO 4500 BKN009
LSZH 051720Z 20003KT 6000 RA FEW007 SCT009 BKN011 03/02 Q1033 TEMPO 4500 BKN009
LSZH 051650Z 24004KT 180V270 6000 RA FEW009 SCT010 BKN011 03/02 Q1033 TEMPO 4500 BKN009
LSZH 051620Z 24002KT 6000 RA FEW009 SCT011 BKN013 03/02 Q1033 TEMPO 4500 BKN009
LSZH 051550Z 25004KT 7000 RA SCT009 BKN016 03/02 Q1033 TEMPO 4500 BKN009
LSZH 051520Z VRB03KT 8000 -RA FEW009 SCT018 BKN022 03/02 Q1033 NOSIG
LSZH 051450Z 25005KT 210V290 8000 -RA FEW010 SCT016 BKN032 03/02 Q1033 NOSIG
LSZH 051420Z VRB03KT 8000 -RA FEW013 SCT015 BKN020 04/02 Q1033 NOSIG
LSZH 051350Z VRB02KT 8000 -RA FEW012 BKN038 03/02 Q1033 NOSIG
LSZH 051320Z 30005KT 8000 -RA SCT014 BKN035 03/01 Q1034 TEMPO BKN014
LSZH 051250Z 29005KT 8000 -RA FEW013 SCT030 BKN050 04/01 Q1034 NOSIG
LSZH 051220Z 24005KT 210V270 9999 -DZRA FEW026 BKN040 04/00 Q1035 NOSIG
LSZH 051150Z 29003KT 240V330 9999 -RADZ FEW012 BKN040 04/01 Q1035 NOSIG
LSZH 051120Z 31006KT 9999 SCT012 BKN065 03/01 Q1035 NOSIG
LSZH 051050Z 28006KT 8000 BR FEW006 SCT012 BKN060 03/01 Q1036 NOSIG
LSZH 051020Z 14004KT 5000 BR SCT006 BKN055 02/01 Q1036 NOSIG
LSZH 050950Z 15003KT 5000 BR FEW002 SCT004 BKN050 02/01 Q1036 NOSIG
LSZH 050920Z 13003KT 3500 BR FEW003 BKN050 02/01 Q1037 BECMG 5000
LSZH 050850Z 13004KT 4000 BR SCT002 BKN050 01/00 Q1037 BECMG 5000
LSZH 050820Z 16003KT 3800 1300NE R14/P2000N R16/0800U R28/0800U R34/P2000N BCFG FEW002 SCT004 BKN045 M01/M02 Q1037 BECMG 5000
LSZH 050750Z 12001KT 3800 BCFG FEW002 BKN045 M02/M03 Q1037 BECMG 5000
LSZH 050720Z 18002KT 4500 2200N R14/0650N R16/P2000N R28/P2000N R34/P2000N BCFG FEW001 SCT003 M03/M04 Q1037 BECMG 5000
LSZH 050650Z VRB01KT 4000 0800N R14/P2000N R16/P2000N R28/P2000N R34/P2000N BCFG SCT001 SCT003 M02/M02 Q1036 BECMG 5000
LSZH 050620Z VRB01KT 4000 0900N R14/P2000N R16/P2000N R28/P2000N R34/P2000N BCFG SCT001 M02/M03 Q1036 TEMPO 3000
LSZH 050550Z VRB01KT 6000 2000N MIFG NSC M02/M03 Q1036 TEMPO 3000 BCFG
LSZH 050520Z VRB02KT 6000 2400N MIFG NSC M02/M03 Q1036 BECMG 4000 BR
LSZH 050450Z VRB02KT 7000 3200N MIFG NSC M02/M02 Q1036 BECMG 4000 BR
LSZH 050420Z AUTO VRB01KT 9999 4900S NCD M01/M02 Q1036 BECMG 4000 BR
LSZH 050350Z AUTO 36004KT 9999 4600N NCD M01/M02 Q1036 NOSIG
LSZH 050320Z AUTO 30003KT CAVOK M00/M02 Q1036 NOSIG
LSZH 050250Z AUTO 29002KT CAVOK 00/M02 Q1036 NOSIG
LSZH 050220Z AUTO 02003KT CAVOK 02/M00 Q1036 NOSIG
LSZH 050150Z AUTO 34003KT CAVOK 01/M00 Q1037 NOSIG
LSZH 050120Z AUTO VRB02KT CAVOK 02/M00 Q1037 NOSIG
LSZH 050050Z AUTO 02002KT 9999 FEW042 01/M00 Q1037 NOSIG
LSZH 050020Z AUTO 03002KT 9999 SCT042 01/M00 Q1037 NOSIG
LSZH 042350Z AUTO 32003KT 9999 BKN042 02/M00 Q1037 NOSIG
LSZH 042320Z AUTO VRB02KT 9999 FEW039 BKN043 01/M00 Q1037 NOSIG
LSZH 042250Z AUTO VRB03KT CAVOK 01/M01 Q1037 NOSIG
LSZH 042220Z 34003KT 310V020 9999 FEW040 02/M00 Q1037 NOSIG
LSZH 042150Z 32005KT 9999 FEW034 SCT045 00/M01 Q1037 NOSIG
LSZH 042120Z VRB02KT 9999 FEW030 SCT040 01/M01 Q1036 NOSIG
LSZH 042050Z 02003KT 330V040 9999 FEW034 SCT045 01/M01 Q1036 NOSIG
LSZH 042020Z VRB02KT 9999 FEW040 01/M01 Q1036 NOSIG
LSZH 041950Z VRB02KT 9999 FEW019 SCT045 01/M01 Q1036 NOSIG
LSZH 041920Z 32004KT 9999 SCT045 03/M00 Q1036 NOSIG
LSZH 041850Z 32004KT 9999 FEW045 04/01 Q1036 NOSIG
LSZH 041820Z VRB01KT 9999 SCT045 04/00 Q1036 NOSIG
LSZH 041750Z 27002KT 9999 FEW042 BKN047 03/01 Q1036 NOSIG
LSZH 041720Z VRB03KT 9999 SCT046 06/01 Q1036 NOSIG
LSZH 041650Z 07005KT 9999 SCT046 06/01 Q1035 NOSIG
LSZH 041620Z VRB01KT 9999 FEW039 BKN045 07/02 Q1035 NOSIG
LSZH 041550Z 00000KT 9999 SCT039 BKN044 07/02 Q1035 NOSIG
LSZH 041520Z VRB01KT 9999 FEW034 BKN045 07/01 Q1035 NOSIG
LSZH 041450Z 12003KT 050V160 9999 FEW026 BKN036 07/02 Q1035 NOSIG
LSZH 041420Z 15002KT 9999 FEW026 BKN031 07/03 Q1035 NOSIG
LSZH 041350Z VRB01KT 9999 FEW020 SCT026 BKN030 07/03 Q1035 NOSIG
LSZH 041320Z 29003KT 9999 FEW022 BKN025 07/03 Q1034 NOSIG
LSZH 041250Z 31003KT 250V350 9999 FEW020 BKN024 06/03 Q1034 NOSIG
LSZH 041220Z 01003KT 9999 VCSH FEW013 SCT016 BKN020 06/03 Q1034 NOSIG
LSZH 041150Z 07005KT 9999 -DZ FEW010 SCT011 BKN019 06/03 Q1034 TEMPO BKN012
LSZH 041120Z 04008KT 360V060 9000 -RADZ FEW009 SCT011 BKN015 06/03 Q1034 TEMPO BKN012
LSZH 041050Z 30004KT 9999 -RA FEW011 SCT013 BKN018 07/04 Q1034 NOSIG
LSZH 041020Z VRB02KT 9999 FEW011 SCT013 BKN018 06/03 Q1034 NOSIG
LSZH 040950Z VRB02KT 9999 SCT012 BKN017 06/03 Q1034 NOSIG
LSZH 040920Z 15003KT 9999 BKN012 06/03 Q1034 NOSIG
LSZH 040850Z 16003KT 9999 BKN014 06/03 Q1034 NOSIG
LSZH 040820Z 16003KT 9999 FEW012 SCT015 BKN030 05/02 Q1034 NOSIG
LSZH 040750Z VRB01KT 9999 FEW012 SCT015 BKN030 05/02 Q1034 NOSIG
LSZH 040720Z 00000KT 9999 FEW017 BKN035 05/02 Q1033 TEMPO BKN012
LSZH 040650Z VRB02KT 6000 -DZ FEW015 SCT020 BKN025 05/02 Q1033 TEMPO BKN012
LSZH 040620Z VRB01KT 9999 -RA FEW016 BKN018 05/02 Q1033 TEMPO BKN012
LSZH 040550Z VRB01KT 9999 FEW013 BKN020 05/02 Q1033 TEMPO BKN012
LSZH 040520Z VRB02KT 9999 FEW013 BKN019 05/02 Q1033 TEMPO BKN012
LSZH 040450Z VRB02KT 9999 -RA FEW015 BKN018 05/02 Q1033 TEMPO BKN012
LSZH 040420Z AUTO VRB02KT 9999 -RA FEW015 BKN018 05/02 Q1033 TEMPO BKN012
LSZH 040350Z AUTO VRB03KT 9999 BKN016 05/02 Q1033 TEMPO BKN012
LSZH 040320Z AUTO 21003KT 180V240 9999 BKN017 05/02 Q1033 TEMPO BKN012
LSZH 040250Z AUTO 18006KT 9999 BKN017 05/02 Q1033 TEMPO BKN012
LSZH 040220Z AUTO 20004KT 180V250 9999 SCT017 BKN021 05/02 Q1033 TEMPO BKN012
LSZH 040150Z AUTO 20007KT 9999 -RADZ SCT018 BKN022 05/02 Q1033 NOSIG
LSZH 040120Z AUTO 18005KT 150V220 9999 -DZ BKN019 05/02 Q1033 NOSIG
LSZH 040050Z AUTO 21007KT 9999 -RA BKN020 05/01 Q1033 TEMPO RA
LSZH 040020Z AUTO 20006KT 9999 -RA BKN020 06/01 Q1033 TEMPO RA
LSZH 032350Z AUTO 20004KT 160V240 9999 -RA FEW021 BKN024 06/01 Q1033 TEMPO RA
LSZH 032320Z AUTO 21005KT 180V250 9999 -RA OVC021 06/01 Q1033 NOSIG
LSZH 032250Z AUTO 21005KT 9999 OVC023 06/00 Q1033 NOSIG
LSZH 032220Z VRB05KT 9999 OVC025 06/01 Q1033 NOSIG
LSZH 032150Z 26007KT 9999 OVC027 07/01 Q1033 NOSIG
LSZH 032120Z 25007KT 9999 BKN027 07/01 Q1033 NOSIG
LSZH 032050Z 24009KT 190V270 9999 BKN027 07/00 Q1033 NOSIG